createdAt,value
2023-02-24T00:02:04.711Z,20.15
2023-02-24T00:04:35.710Z,22.50
2023-02-24T00:07:05.897Z,19.25
2023-02-24T00:09:34.945Z,20.80
2023-02-24T00:12:05.666Z,17.70
2023-02-24T00:14:36.107Z,23.73
2023-02-24T00:17:08.469Z,21.70
2023-02-24T00:19:38.521Z,23.27
2023-02-24T00:22:10.311Z,18.17
2023-02-24T00:24:38.913Z,24.42
2023-02-24T00:27:11.365Z,19.88
2023-02-24T00:29:40.581Z,27.20
2023-02-24T00:32:13.281Z,21.80
2023-02-24T00:34:44.172Z,19.33
2023-02-24T00:37:16.002Z,21.20
2023-02-24T00:39:44.484Z,17.75
2023-02-24T00:42:13.147Z,24.52
2023-02-24T00:44:43.503Z,20.92
2023-02-24T00:47:13.025Z,20.63
2023-02-24T00:49:43.342Z,19.58
2023-02-24T00:52:15.959Z,22.33
2023-02-24T00:54:46.169Z,17.58
2023-02-24T00:57:16.247Z,29.77
2023-02-24T00:59:48.069Z,23.98
2023-02-24T01:02:17.862Z,17.70
2023-02-24T01:04:46.648Z,22.48
2023-02-24T01:07:16.759Z,20.67
2023-02-24T01:09:45.726Z,18.52
2023-02-24T01:12:38.011Z,21.38
2023-02-24T01:15:09.557Z,24.15
2023-02-24T01:17:38.857Z,19.10
2023-02-24T01:20:17.363Z,28.85
2023-02-24T01:22:50.755Z,21.30
2023-02-24T01:25:21.007Z,19.63
2023-02-24T01:27:49.972Z,21.98
2023-02-24T01:30:18.767Z,17.67
2023-02-24T01:32:48.645Z,20.85
2023-02-24T01:35:18.222Z,16.52
2023-02-24T01:37:48.242Z,20.40
2023-02-24T01:40:21.904Z,20.15
2023-02-24T01:42:52.372Z,19.92
2023-02-24T01:45:29.061Z,34.70
2023-02-24T01:48:02.496Z,19.08
2023-02-24T01:50:33.207Z,17.88
2023-02-24T01:53:06.845Z,20.45
2023-02-24T01:55:39.682Z,23.30
2023-02-24T01:58:15.803Z,19.35
2023-02-24T02:00:47.980Z,21.52
2023-02-24T02:03:31.306Z,18.20
2023-02-24T02:06:03.271Z,19.10
2023-02-24T02:08:36.807Z,13.80
2023-02-24T02:11:08.658Z,20.63
2023-02-24T02:13:38.602Z,22.67
2023-02-24T02:16:27.027Z,22.55
2023-02-24T02:19:11.543Z,23.40
2023-02-24T02:22:07.786Z,25.70
2023-02-24T02:24:48.685Z,19.10
2023-02-24T02:27:38.891Z,20.80
2023-02-24T02:30:29.167Z,23.08
2023-02-24T02:33:39.781Z,22.25
2023-02-24T02:36:22.618Z,20.88
2023-02-24T02:38:58.708Z,19.98
2023-02-24T02:41:32.157Z,28.10
2023-02-24T02:44:09.061Z,27.65
2023-02-24T02:46:43.939Z,16.25
2023-02-24T02:49:22.164Z,23.60
2023-02-24T02:51:55.175Z,27.50
2023-02-24T02:54:30.111Z,25.27
2023-02-24T02:57:07.136Z,24.55
2023-02-24T02:59:41.784Z,22.27
2023-02-24T03:02:14.875Z,25.65
2023-02-24T03:04:46.815Z,18.17
2023-02-24T03:07:20.300Z,20.67
2023-02-24T03:09:53.232Z,23.95
2023-02-24T03:12:25.261Z,27.25
2023-02-24T03:15:00.497Z,27.73
2023-02-24T03:17:32.368Z,26.63
2023-02-24T03:20:15.525Z,28.70
2023-02-24T03:22:52.290Z,26.70
2023-02-24T03:25:25.832Z,17.67
2023-02-24T03:28:01.413Z,16.35
2023-02-24T03:30:38.248Z,31.05
2023-02-24T03:33:18.795Z,29.08
2023-02-24T03:35:50.083Z,28.20
2023-02-24T03:38:24.434Z,33.88
2023-02-24T03:40:53.835Z,27.50
2023-02-24T03:43:28.148Z,27.85
2023-02-24T03:45:58.040Z,27.95
2023-02-24T03:48:29.486Z,24.23
2023-02-24T03:50:59.760Z,21.73
2023-02-24T03:53:43.852Z,31.35
2023-02-24T03:56:29.012Z,20.75
2023-02-24T03:59:13.140Z,26.80
2023-02-24T04:01:50.220Z,20.10
2023-02-24T04:04:27.947Z,27.88
2023-02-24T04:07:01.051Z,29.25
2023-02-24T04:09:40.987Z,29.42
2023-02-24T04:12:21.157Z,25.38
2023-02-24T04:14:54.518Z,29.75
2023-02-24T04:17:28.088Z,32.03
2023-02-24T04:20:02.905Z,37.40
2023-02-24T04:22:33.213Z,32.95
2023-02-24T04:25:06.521Z,31.17
2023-02-24T04:27:35.818Z,32.20
2023-02-24T04:30:06.442Z,25.08
2023-02-24T04:32:35.097Z,28.25
2023-02-24T04:35:06.887Z,28.77
2023-02-24T04:37:37.680Z,25.15
2023-02-24T04:40:12.600Z,30.65
2023-02-24T04:42:46.722Z,32.42
2023-02-24T04:45:17.140Z,29.20
2023-02-24T04:47:49.686Z,36.88
2023-02-24T04:50:24.131Z,39.92
2023-02-24T04:52:54.465Z,31.60
2023-02-24T04:55:29.635Z,30.40
2023-02-24T04:57:59.296Z,25.65
2023-02-24T05:00:34.082Z,26.98
2023-02-24T05:03:04.591Z,27.40
2023-02-24T05:05:35.077Z,33.33
2023-02-24T05:08:06.700Z,27.33
2023-02-24T05:10:40.402Z,36.83
2023-02-24T05:13:11.277Z,19.63
2023-02-24T05:15:42.518Z,35.58
2023-02-24T05:18:17.384Z,28.77
2023-02-24T05:21:06.038Z,34.45
2023-02-24T05:23:36.411Z,31.83
2023-02-24T05:26:09.766Z,27.42
2023-02-24T05:28:41.049Z,21.63
2023-02-24T05:31:11.853Z,28.88
2023-02-24T05:33:43.053Z,38.30
2023-02-24T05:36:17.752Z,34.72
2023-02-24T05:38:47.809Z,31.05
2023-02-24T05:41:21.053Z,26.85
2023-02-24T05:43:55.664Z,34.70
2023-02-24T05:46:29.498Z,26.45
2023-02-24T05:48:59.522Z,30.17
2023-02-24T05:51:35.500Z,31.42
2023-02-24T05:54:06.862Z,28.83
2023-02-24T05:56:39.916Z,29.33
2023-02-24T05:59:11.024Z,31.65
2023-02-24T06:01:42.153Z,27.30
2023-02-24T06:04:21.141Z,32.00
2023-02-24T06:06:52.899Z,35.97
2023-02-24T06:09:24.547Z,27.23
2023-02-24T06:11:56.836Z,32.45
2023-02-24T06:14:26.469Z,30.58
2023-02-24T06:16:55.092Z,26.52
2023-02-24T06:19:25.821Z,41.53
2023-02-24T06:21:56.422Z,36.63
2023-02-24T06:24:27.405Z,31.90
2023-02-24T06:27:02.728Z,27.55
2023-02-24T06:29:32.345Z,34.53
2023-02-24T06:32:09.029Z,30.65
2023-02-24T06:34:38.345Z,35.25
2023-02-24T06:37:09.034Z,31.45
2023-02-24T06:39:37.867Z,33.63
2023-02-24T06:42:09.122Z,35.78
2023-02-24T06:44:40.803Z,23.38
2023-02-24T06:47:13.266Z,33.92
2023-02-24T06:49:43.003Z,28.83
2023-02-24T06:52:18.785Z,32.63
2023-02-24T06:54:52.953Z,37.97
2023-02-24T06:57:23.758Z,32.03
2023-02-24T06:59:52.532Z,35.85
2023-02-24T07:02:21.376Z,38.95
2023-02-24T07:04:50.686Z,30.92
2023-02-24T07:07:20.147Z,25.35
2023-02-24T07:09:49.056Z,27.50
2023-02-24T07:12:21.238Z,35.47
2023-02-24T07:14:53.540Z,36.70
2023-02-24T07:17:25.009Z,35.78
2023-02-24T07:19:54.758Z,23.55
2023-02-24T07:22:25.435Z,25.08
2023-02-24T07:25:00.829Z,30.95
2023-02-24T07:27:30.518Z,31.88
2023-02-24T07:30:00.652Z,28.35
2023-02-24T07:32:30.760Z,30.50
2023-02-24T07:34:59.878Z,25.30
2023-02-24T07:37:31.981Z,37.60
2023-02-24T07:40:00.489Z,30.08
2023-02-24T07:42:30.772Z,33.30
2023-02-24T07:45:08.423Z,29.65
2023-02-24T07:47:36.877Z,36.67
2023-02-24T07:50:10.996Z,24.88
2023-02-24T07:52:39.361Z,26.70
2023-02-24T07:55:10.445Z,27.92
2023-02-24T07:57:39.262Z,29.08
2023-02-24T08:00:19.445Z,31.73
2023-02-24T08:02:50.703Z,28.73
2023-02-24T08:05:19.456Z,34.90
2023-02-24T08:07:51.307Z,31.60
2023-02-24T08:10:28.437Z,33.80
2023-02-24T08:13:03.431Z,30.25
2023-02-24T08:15:35.284Z,24.27
2023-02-24T08:18:04.067Z,29.33
2023-02-24T08:20:52.561Z,25.95
2023-02-24T08:23:23.653Z,26.20
2023-02-24T08:25:53.865Z,31.15
2023-02-24T08:28:27.176Z,25.52
2023-02-24T08:30:57.553Z,30.85
2023-02-24T08:33:30.509Z,25.42
2023-02-24T08:36:02.408Z,30.38
2023-02-24T08:38:47.882Z,29.17
2023-02-24T08:41:21.673Z,29.77
2023-02-24T08:43:50.967Z,26.50
2023-02-24T08:46:27.174Z,27.55
2023-02-24T08:49:00.989Z,28.10
2023-02-24T08:51:35.114Z,28.42
2023-02-24T08:54:11.550Z,29.13
2023-02-24T08:56:44.138Z,28.45
2023-02-24T08:59:29.622Z,30.77
2023-02-24T09:15:21.095Z,27.85
2023-02-24T09:18:01.729Z,24.52
2023-02-24T09:20:47.414Z,26.95
2023-02-24T09:23:20.547Z,26.88
2023-02-24T09:25:51.342Z,23.55
2023-02-24T09:28:25.191Z,28.75
2023-02-24T09:30:57.567Z,24.92
2023-02-24T09:33:28.601Z,28.75
2023-02-24T09:36:13.297Z,28.88
2023-02-24T09:39:14.923Z,25.40
2023-02-24T09:41:57.838Z,27.85
2023-02-24T09:44:33.567Z,22.63
2023-02-24T09:47:13.853Z,20.48
2023-02-24T09:49:56.674Z,22.05
2023-02-24T09:52:40.010Z,20.65
2023-02-24T09:55:27.052Z,27.00
2023-02-24T09:58:20.961Z,23.98
2023-02-24T10:00:58.533Z,26.45
2023-02-24T10:03:48.364Z,25.35
2023-02-24T10:06:22.797Z,17.83
2023-02-24T10:08:57.686Z,16.30
2023-02-24T10:11:34.266Z,25.85
2023-02-24T10:14:06.820Z,22.35
2023-02-24T10:16:46.607Z,19.80
2023-02-24T10:19:25.768Z,16.40
2023-02-24T10:22:03.449Z,12.88
2023-02-24T10:24:38.956Z,23.45
2023-02-24T10:27:16.974Z,16.60
2023-02-24T10:30:06.051Z,14.30
2023-02-24T10:32:47.359Z,17.10
2023-02-24T10:35:21.183Z,15.13
2023-02-24T10:37:50.730Z,18.10
2023-02-24T10:40:34.167Z,16.77
2023-02-24T10:43:10.975Z,15.00
2023-02-24T10:45:45.698Z,15.38
2023-02-24T10:48:41.043Z,15.10
2023-02-24T10:51:20.535Z,22.88
2023-02-24T10:54:10.486Z,13.75
2023-02-24T10:56:45.128Z,12.88
2023-02-24T10:59:41.617Z,15.57
2023-02-24T11:02:30.200Z,15.70
2023-02-24T11:05:14.121Z,17.35
2023-02-24T11:07:54.248Z,14.43
2023-02-24T11:10:33.037Z,21.38
2023-02-24T11:13:20.605Z,19.73
2023-02-24T11:16:09.963Z,19.08
2023-02-24T11:18:40.918Z,14.82
2023-02-24T11:21:13.059Z,12.55
2023-02-24T11:23:48.746Z,11.70
2023-02-24T11:26:23.224Z,15.52
2023-02-24T11:29:01.378Z,12.75
2023-02-24T11:31:46.443Z,16.33
2023-02-24T11:34:25.199Z,14.88
2023-02-24T11:37:07.435Z,15.23
2023-02-24T11:39:57.016Z,12.30
2023-02-24T11:42:31.991Z,17.70
2023-02-24T11:45:09.491Z,13.02
2023-02-24T11:47:48.230Z,14.43
2023-02-24T11:50:32.665Z,12.52
2023-02-24T11:53:07.626Z,10.13
2023-02-24T11:55:42.745Z,8.90
2023-02-24T11:58:19.516Z,16.75
2023-02-24T12:00:57.239Z,18.25
2023-02-24T12:03:35.741Z,7.10
2023-02-24T12:06:17.278Z,9.80
2023-02-24T12:08:50.929Z,10.35
2023-02-24T12:11:30.681Z,11.43
2023-02-24T12:14:08.817Z,15.65
2023-02-24T12:16:41.942Z,10.75
2023-02-24T12:19:21.012Z,11.75
2023-02-24T12:21:55.111Z,8.57
2023-02-24T12:24:24.600Z,9.32
2023-02-24T12:27:06.745Z,7.43
2023-02-24T12:29:52.666Z,13.68
2023-02-24T12:32:39.052Z,9.95
2023-02-24T12:35:20.687Z,6.55
2023-02-24T12:38:11.497Z,8.23
2023-02-24T12:40:47.970Z,8.40
2023-02-24T12:43:29.533Z,9.20
2023-02-24T12:46:07.385Z,9.20
2023-02-24T12:49:18.156Z,11.35
2023-02-24T12:51:58.869Z,8.25
2023-02-24T12:54:33.175Z,10.13
2023-02-24T12:57:10.641Z,11.70
2023-02-24T12:59:43.344Z,9.98
2023-02-24T13:02:24.776Z,10.63
2023-02-24T13:05:05.293Z,11.32
2023-02-24T13:07:53.480Z,11.35
2023-02-24T13:10:34.959Z,8.95
2023-02-24T13:13:12.241Z,8.75
2023-02-24T13:15:52.020Z,10.48
2023-02-24T13:18:30.255Z,9.90
2023-02-24T13:21:09.219Z,10.68
2023-02-24T13:23:42.221Z,8.15
2023-02-24T13:26:13.062Z,11.10
2023-02-24T13:28:41.621Z,15.13
2023-02-24T13:31:14.103Z,10.88
2023-02-24T13:33:44.446Z,12.93
2023-02-24T13:36:17.673Z,8.25
2023-02-24T13:38:48.971Z,13.80
2023-02-24T13:41:45.208Z,9.05
2023-02-24T13:44:27.209Z,12.80
2023-02-24T13:47:36.580Z,11.23
2023-02-24T13:50:21.093Z,7.57
2023-02-24T13:53:10.015Z,6.00
2023-02-24T13:56:01.640Z,12.13
2023-02-24T13:59:06.514Z,10.90
2023-02-24T14:01:48.585Z,10.10
2023-02-24T14:04:22.467Z,11.43
2023-02-24T14:06:54.931Z,13.05
2023-02-24T14:09:28.446Z,10.45
2023-02-24T14:12:01.875Z,12.95
2023-02-24T14:14:32.187Z,9.10
2023-02-24T14:17:00.688Z,9.70
2023-02-24T14:19:30.675Z,13.00
2023-02-24T14:22:01.072Z,12.43
2023-02-24T14:24:29.977Z,8.95
2023-02-24T14:27:01.248Z,9.65
2023-02-24T14:29:32.393Z,7.07
2023-02-24T14:32:02.330Z,13.25
2023-02-24T14:34:35.040Z,6.15
2023-02-24T14:37:05.901Z,11.93
2023-02-24T14:39:35.859Z,13.23
2023-02-24T14:42:15.104Z,11.45
2023-02-24T14:44:46.559Z,12.38
2023-02-24T14:47:16.594Z,10.90
2023-02-24T14:49:58.668Z,10.98
2023-02-24T14:52:37.668Z,10.95
2023-02-24T14:55:16.049Z,9.68
2023-02-24T14:57:51.427Z,9.35
2023-02-24T15:00:24.562Z,7.95
2023-02-24T15:03:06.361Z,8.50
2023-02-24T15:05:44.785Z,10.43
2023-02-24T15:08:31.390Z,13.73
2023-02-24T15:11:00.464Z,9.32
2023-02-24T15:13:37.860Z,9.02
2023-02-24T15:16:14.986Z,7.70
2023-02-24T15:18:43.805Z,11.00
2023-02-24T15:21:23.484Z,9.85
2023-02-24T15:24:01.501Z,14.52
2023-02-24T15:26:32.923Z,10.55
2023-02-24T15:29:04.099Z,11.75
2023-02-24T15:31:32.967Z,13.43
2023-02-24T15:34:04.362Z,13.82
2023-02-24T15:36:37.476Z,9.18
2023-02-24T15:39:10.537Z,10.25
2023-02-24T15:41:45.962Z,12.27
2023-02-24T15:44:28.688Z,8.73
2023-02-24T15:46:58.137Z,8.68
2023-02-24T15:49:26.892Z,12.68
2023-02-24T15:52:01.695Z,10.40
2023-02-24T15:54:33.194Z,9.15
2023-02-24T15:57:03.409Z,16.23
2023-02-24T15:59:32.099Z,10.30
2023-02-24T16:02:00.708Z,10.40
2023-02-24T16:04:29.395Z,11.02
2023-02-24T16:07:02.046Z,8.65
2023-02-24T16:09:36.774Z,10.88
2023-02-24T16:12:21.763Z,7.90
2023-02-24T16:14:56.238Z,11.90
2023-02-24T16:17:33.098Z,10.98
2023-02-24T16:20:02.859Z,9.27
2023-02-24T16:22:32.968Z,12.38
2023-02-24T16:25:01.515Z,11.52
2023-02-24T16:27:31.931Z,14.48
2023-02-24T16:30:01.866Z,13.60
2023-02-24T16:32:30.934Z,7.25
2023-02-24T16:35:00.463Z,9.50
2023-02-24T16:37:30.926Z,11.35
2023-02-24T16:40:01.789Z,6.30
2023-02-24T16:42:30.394Z,9.68
2023-02-24T16:44:59.014Z,44.75
2023-02-24T16:47:27.636Z,16.20
2023-02-24T16:49:58.088Z,14.38
2023-02-24T16:52:26.629Z,15.98
2023-02-24T16:54:55.228Z,13.45
2023-02-24T16:57:26.144Z,16.23
2023-02-24T16:59:55.762Z,15.02
2023-02-24T17:02:27.090Z,12.02
2023-02-24T17:04:55.561Z,19.38
2023-02-24T17:07:24.396Z,16.00
2023-02-24T17:09:53.737Z,19.25
2023-02-24T17:12:24.840Z,14.00
2023-02-24T17:14:53.512Z,15.60
2023-02-24T17:17:22.106Z,17.02
2023-02-24T17:19:52.298Z,11.23
2023-02-24T17:22:22.339Z,12.93
2023-02-24T17:24:50.976Z,13.90
2023-02-24T17:27:19.649Z,17.08
2023-02-24T17:29:49.705Z,16.48
2023-02-24T17:32:18.548Z,16.00
2023-02-24T17:34:47.461Z,18.80
2023-02-24T17:37:16.026Z,14.30
2023-02-24T17:39:44.538Z,16.00
2023-02-24T17:42:13.148Z,20.20
2023-02-24T17:44:41.768Z,17.40
2023-02-24T17:47:12.927Z,23.33
2023-02-24T17:49:41.600Z,17.35
2023-02-24T17:52:10.310Z,18.20
2023-02-24T17:54:39.275Z,15.43
2023-02-24T17:57:09.494Z,21.95
2023-02-24T17:59:38.375Z,19.25
2023-02-24T18:02:10.509Z,21.77
2023-02-24T18:04:41.854Z,18.20
2023-02-24T18:07:12.160Z,23.55
2023-02-24T18:09:41.081Z,30.95
2023-02-24T18:12:09.936Z,26.83
2023-02-24T18:14:38.417Z,28.38
2023-02-24T18:17:06.959Z,24.95
2023-02-24T18:19:35.404Z,21.92
2023-02-24T18:22:05.389Z,27.63
2023-02-24T18:24:34.917Z,34.17
2023-02-24T18:27:04.493Z,27.02
2023-02-24T18:29:33.642Z,25.25
2023-02-24T18:32:03.737Z,29.63
2023-02-24T18:34:32.416Z,38.22
2023-02-24T18:37:01.199Z,34.00
2023-02-24T18:39:31.414Z,33.80
2023-02-24T18:42:00.298Z,26.20
2023-02-24T18:44:29.630Z,31.70
2023-02-24T18:46:58.532Z,37.35
2023-02-24T18:49:27.359Z,32.42
2023-02-24T18:52:23.032Z,26.13
2023-02-24T18:54:53.567Z,30.73
2023-02-24T18:57:22.186Z,26.58
2023-02-24T18:59:51.431Z,39.85
2023-02-24T19:02:20.194Z,33.38
2023-02-24T19:04:48.899Z,41.63
2023-02-24T19:07:17.559Z,38.58
2023-02-24T19:09:48.964Z,36.92
2023-02-24T19:12:20.878Z,41.45
2023-02-24T19:14:53.071Z,45.33
2023-02-24T19:17:22.178Z,42.60
2023-02-24T19:19:50.950Z,43.60
2023-02-24T19:22:19.805Z,39.97
2023-02-24T19:24:48.391Z,36.72
2023-02-24T19:27:17.155Z,36.70
2023-02-24T19:29:47.212Z,38.90
2023-02-24T19:32:16.093Z,41.78
2023-02-24T19:34:44.550Z,40.88
2023-02-24T19:37:13.581Z,43.20
2023-02-24T19:39:42.393Z,37.40
2023-02-24T19:42:11.216Z,32.78
2023-02-24T19:44:39.712Z,35.30
2023-02-24T19:47:09.769Z,40.15
2023-02-24T19:49:39.093Z,38.47
2023-02-24T19:52:07.748Z,43.17
2023-02-24T19:54:36.878Z,36.92
2023-02-24T19:57:05.591Z,36.08
2023-02-24T19:59:34.406Z,38.15
2023-02-24T20:02:03.037Z,46.72
2023-02-24T20:04:33.304Z,50.38
2023-02-24T20:07:01.972Z,58.35
2023-02-24T20:09:30.396Z,49.95
2023-02-24T20:12:01.240Z,47.17
2023-02-24T20:14:31.268Z,53.55
2023-02-24T20:16:59.963Z,50.88
2023-02-24T20:19:28.708Z,54.20
2023-02-24T20:21:58.763Z,59.42
2023-02-24T20:24:27.679Z,45.33
2023-02-24T20:26:56.603Z,46.50
2023-02-24T20:29:25.288Z,47.42
2023-02-24T20:31:53.956Z,50.53
2023-02-24T20:34:22.767Z,47.35
2023-02-24T20:36:51.381Z,42.22
2023-02-24T20:39:25.309Z,47.10
2023-02-24T20:41:55.314Z,40.83
2023-02-24T20:44:23.896Z,48.70
2023-02-24T20:46:52.468Z,43.58
2023-02-24T20:49:21.582Z,47.55
2023-02-24T20:51:50.342Z,43.30
2023-02-24T20:54:20.532Z,38.83
2023-02-24T20:56:49.452Z,44.17
2023-02-24T20:59:22.229Z,41.80
2023-02-24T21:01:52.364Z,45.17
2023-02-24T21:04:22.804Z,40.63
2023-02-24T21:06:52.289Z,36.25
2023-02-24T21:09:22.975Z,39.33
2023-02-24T21:11:51.657Z,44.30
2023-02-24T21:14:22.349Z,41.85
2023-02-24T21:16:51.451Z,42.80
2023-02-24T21:19:20.472Z,43.70
2023-02-24T21:21:49.528Z,40.10
2023-02-24T21:24:18.296Z,52.72
2023-02-24T21:26:48.817Z,38.17
2023-02-24T21:29:17.814Z,40.15
2023-02-24T21:31:47.381Z,42.72
2023-02-24T21:34:17.030Z,50.92
2023-02-24T21:36:46.338Z,47.05
2023-02-24T21:39:15.663Z,43.08
2023-02-24T21:41:44.405Z,46.20
2023-02-24T21:44:16.504Z,43.83
2023-02-24T21:46:45.787Z,49.17
2023-02-24T21:49:15.151Z,38.90
2023-02-24T21:51:43.932Z,50.78
2023-02-24T21:54:12.916Z,44.03
2023-02-24T21:56:42.429Z,47.38
2023-02-24T21:59:11.759Z,53.33
2023-02-24T22:01:43.860Z,48.53
2023-02-24T22:04:19.375Z,38.00
2023-02-24T22:06:47.898Z,44.05
2023-02-24T22:09:20.129Z,48.60
2023-02-24T22:11:50.852Z,47.00
2023-02-24T22:14:21.468Z,35.30
2023-02-24T22:16:51.633Z,47.08
2023-02-24T22:19:20.782Z,39.53
2023-02-24T22:21:49.443Z,50.55
2023-02-24T22:24:19.673Z,48.22
2023-02-24T22:26:47.990Z,45.53
2023-02-24T22:29:16.486Z,49.95
2023-02-24T22:31:49.067Z,51.55
2023-02-24T22:34:19.609Z,44.70
2023-02-24T22:36:48.200Z,41.60
2023-02-24T22:39:17.843Z,53.33
2023-02-24T22:41:48.524Z,46.92
2023-02-24T22:44:19.577Z,37.25
2023-02-24T22:46:49.489Z,43.50
2023-02-24T22:49:19.586Z,43.00
2023-02-24T22:51:47.921Z,44.17
2023-02-24T22:54:17.046Z,41.75
2023-02-24T22:56:45.778Z,44.55
2023-02-24T22:59:14.836Z,51.25
2023-02-24T23:01:44.431Z,47.30
2023-02-24T23:04:15.751Z,36.67
2023-02-24T23:06:47.886Z,45.05
2023-02-24T23:09:20.235Z,43.10
2023-02-24T23:11:49.249Z,44.63
2023-02-24T23:14:18.510Z,39.25
2023-02-24T23:16:48.689Z,44.03
2023-02-24T23:19:18.951Z,51.47
2023-02-24T23:21:51.737Z,40.35
2023-02-24T23:24:21.876Z,43.45
2023-02-24T23:26:54.162Z,46.38
2023-02-24T23:29:24.477Z,52.08
2023-02-24T23:31:54.380Z,40.60
2023-02-24T23:34:23.224Z,43.38
2023-02-24T23:36:53.314Z,45.67
2023-02-24T23:39:24.140Z,39.88
2023-02-24T23:41:57.488Z,49.53
2023-02-24T23:44:26.857Z,43.28
2023-02-24T23:46:58.458Z,44.25
2023-02-24T23:49:39.147Z,45.35
2023-02-24T23:52:16.086Z,54.08
2023-02-24T23:54:44.802Z,49.90
2023-02-24T23:57:13.551Z,43.75
2023-02-24T23:59:42.644Z,56.70
